Aviation Digital Data Service (ADDS)

Output produced by METARs form (0144 UTC 28 September 2016)
found at http://aviationweather.gov/adds/metars/
 
KCRG 272339Z 2800/2824 09005KT P6SM FEW030 BKN250 
     FM281400 26008KT P6SM SCT025 BKN040 BKN250 
     FM281900 24007KT P6SM VCTS SCT030CB BKN050